Flight Track Log - Related Links

Times and Time Zones

All times are in EDT time to prevent confusion due to time zone crossing. See the SWA534 flight status page for this flight to view local times or setup timezone preferences in your user account.

Time Position Orientation Groundspeed Altitude Reporting Facility
EDT Latitude Longitude Course Direction KTS MPH feet Rate Location/Type
Wed 03:24:11 PM 32.0981 -110.9186 180° South 180 207 3,300  Level Albuquerque Center
Wed 03:25:32 PM 32.0439 -110.9181 180° South 239 275 5,800 1,985 Climbing Albuquerque Center
Wed 03:26:24 PM 32.0736 -110.9906 296° West 268 308 7,700 2,341 Climbing Albuquerque Center
Wed 03:27:35 PM 32.1189 -111.0733 303° West 278 320 10,600 2,211 Climbing Albuquerque Center
Wed 03:28:37 PM 32.1706 -111.1678 303° West 332 382 12,600 2,634 Climbing Albuquerque Center
Wed 03:29:38 PM 32.2347 -111.2889 302° West 359 413 16,000 2,780 Climbing Albuquerque Center
Wed 03:30:40 PM 32.2889 -111.3928 302° West 368 423 18,300 2,244 Climbing Albuquerque Center
Wed 03:31:41 PM 32.3461 -111.4994 302° West 379 436 20,600 2,293 Climbing Albuquerque Center
Wed 03:32:43 PM 32.4044 -111.6117 302° West 395 455 23,000 2,032 Climbing Albuquerque Center
Wed 03:33:45 PM 32.4628 -111.7222 302° West 397 457 24,800 1,659 Climbing Albuquerque Center
Wed 03:34:46 PM 32.5242 -111.8378 302° West 406 467 26,400 1,756 Climbing Albuquerque Center
Wed 03:35:48 PM 32.5872 -111.9586 302° West 422 486 28,400 1,561 Climbing Albuquerque Center
Wed 03:36:49 PM 32.6489 -112.0769 302° West 423 487 29,600 1,171 Climbing Albuquerque Center
Wed 03:37:51 PM 32.7278 -112.2286 302° West 442 509 30,800 1,258 Climbing Albuquerque Center
Wed 03:38:53 PM 32.7850 -112.3397 302° West 454 522 32,200 1,902 Climbing Albuquerque Center
Wed 03:39:54 PM 32.8619 -112.4897 301° West 449 517 34,700 1,854 Climbing Albuquerque Center
Wed 03:40:56 PM 32.9236 -112.6097 301° West 436 502 36,000 634 Climbing Albuquerque Center
Wed 03:41:57 PM 32.9947 -112.7233 307° West 438 504 36,000  Level Albuquerque Center
Wed 03:42:59 PM 33.0747 -112.8308 312° West 437 503 36,000  Level Albuquerque Center
Wed 03:44:01 PM 33.1569 -112.9389 312° West 439 505 36,000  Level Albuquerque Center
Wed 03:45:02 PM 33.2386 -113.0475 312° West 441 507 36,000  Level Albuquerque Center
Wed 03:46:04 PM 33.3358 -113.1786 312° West 441 507 36,000  Level Albuquerque Center
Wed 03:47:05 PM 33.4178 -113.2861 312° West 440 506 36,000  Level Albuquerque Center
Wed 03:48:07 PM 33.4986 -113.3958 311° West 441 507 36,000  Level Albuquerque Center
Wed 03:49:09 PM 33.5814 -113.5069 312° West 445 512 36,000  Level Albuquerque Center
Wed 03:50:10 PM 33.6667 -113.6233 311° West 452 520 36,000  Level Albuquerque Center
Wed 03:51:12 PM 33.7506 -113.7353 312° West 452 520 36,000  Level Albuquerque Center
Wed 03:52:13 PM 33.8219 -113.8597 305° West 452 520 36,000  Level Albuquerque Center
Wed 03:53:15 PM 33.8500 -114.0028 283° West 440 506 36,000  Level Albuquerque Center
Wed 03:54:17 PM 33.8764 -114.1747 281° West 438 504 36,000  Level Albuquerque Center
Wed 03:55:07 PM 33.8953 -114.2906 281° West 440 506 36,000  Level Los Angeles Center
Wed 03:56:09 PM 33.9167 -114.4344 280° West 440 506 36,000  Level Los Angeles Center
Wed 03:57:11 PM 33.9389 -114.5772 281° West 437 503 36,000  Level Los Angeles Center
Wed 03:58:13 PM 33.9608 -114.7219 280° West 441 507 36,000  Level Los Angeles Center
Wed 03:59:16 PM 33.9858 -114.8947 280° West 438 504 36,000  Level Los Angeles Center
Wed 04:00:18 PM 34.0078 -115.0386 280° West 440 506 36,000  Level Los Angeles Center
Wed 04:01:20 PM 34.0292 -115.1814 280° West 436 502 36,000  Level Los Angeles Center
Wed 04:02:22 PM 34.0492 -115.3250 280° West 435 501 36,000  Level Los Angeles Center
Wed 04:03:24 PM 34.0703 -115.4689 280° West 439 505 36,000  Level Los Angeles Center
Wed 04:04:26 PM 34.0947 -115.6417 280° West 438 504 36,000  Level Los Angeles Center
Wed 04:05:28 PM 34.1094 -115.7853 277° West 435 501 36,000  Level Los Angeles Center
Wed 04:06:30 PM 34.0900 -115.9231 260° West 423 487 36,000  Level Los Angeles Center
Wed 04:07:33 PM 34.0694 -116.0611 260° West 420 483 36,000 -912 Level Los Angeles Center
Wed 04:08:35 PM 34.0486 -116.1994 260° West 421 484 34,100 -2,710 Descending Los Angeles Center
Wed 04:09:37 PM 34.0239 -116.3647 260° West 420 483 30,400 -2,661 Descending Los Angeles Center
Wed 04:10:39 PM 34.0033 -116.5075 260° West 433 498 28,600 -2,565 Descending Los Angeles Center
Wed 04:11:41 PM 33.9908 -116.6600 264° West 455 524 25,100 -3,048 Descending Los Angeles Center
Wed 04:12:43 PM 33.9800 -116.8028 265° West 434 499 22,300 -2,661 Descending Los Angeles Center
Wed 04:13:45 PM 33.9689 -116.9392 264° West 415 478 19,600 -2,448 Descending Los Angeles Center
Wed 04:14:48 PM 33.9581 -117.0700 264° West 398 458 17,200 -1,248 Descending Los Angeles Center
Wed 04:15:50 PM 33.9461 -117.2047 264° West 363 418 17,000 -290 Descending Los Angeles Center
Wed 04:16:52 PM 33.9361 -117.3250 264° West 361 415 16,600 -1,258 Descending Los Angeles Center
Wed 04:17:54 PM 33.9550 -117.4411 281° West 357 411 14,400 -2,274 Descending Los Angeles Center
Wed 04:18:56 PM 34.0019 -117.5706 294° West 352 405 11,900 -1,984 Descending Los Angeles Center
Wed 04:19:58 PM 34.0253 -117.6764 285° West 337 388 10,300 -1,355 Descending Los Angeles Center
Wed 04:21:00 PM 34.0147 -117.7747 263° West 302 348 9,100 -1,364 Descending Los Angeles Center
Wed 04:22:10 PM 34.0000 -117.9000 262° West 285 328 7,300 -1,338 Descending Southern California TRACON
Wed 04:23:10 PM 34.0000 -117.9833 270° West 266 306 6,200 -1,000 Descending Southern California TRACON
Wed 04:24:10 PM 33.9833 -118.0667 256° West 246 283 5,300 -908 Descending Southern California TRACON
Wed 04:25:09 PM 33.9786 -118.1389 266° West 239 275 4,400 -1,041 Descending Los Angeles Center
Wed 04:26:11 PM 33.9725 -118.2036 264° West 208 239 3,200 -968 Descending Los Angeles Center
Wed 04:27:13 PM 33.9664 -118.2606 263° West 186 214 2,400 -823 Descending Los Angeles Center
Wed 04:28:15 PM 33.9619 -118.3144 264° West 173 199 1,500 -823 Descending Los Angeles Center
Wed 04:29:17 PM 33.9569 -118.3692 264° West 151 174 700 -624 Descending Los Angeles Center
Wed 04:30:20 PM 33.9522 -118.4011 260° West 135 155 200 -476 Descending Los Angeles Center
Wed 04:32:00 PM 33.9425 -118.4081 270° West  Level Estimated
Wed 04:39:00 PM 33.9425 -118.4081 270° West  Level Estimated

Login

Don't have an account? Register now (free) for customized features, flight alerts, and more!